Time;durP1;ratioP1;P1;durP2;ratioP2;P2;SDS_P1;SDS_P2;PMS_P1;PMS_P2;Temp;Humidity;BMP_temperature;BMP_pressure;BME280_temperature;BME280_humidity;BME280_pressure;Samples;Min_cycle;Max_cycle;Signal;HPM_P1;HPM_P2
2024/01/18 06:43:55;;;;;;;7.45;5.25;;;;;;;;;;10497124;28;20439;-82
2024/01/18 06:48:59;;;;;;;7.63;5.03;;;;;;;;;;10496280;28;20067;-82
2024/01/18 06:54:02;;;;;;;6.28;4.20;;;;;;;;;;10498016;28;20048;-82
2024/01/18 06:59:05;;;;;;;6.75;4.70;;;;;;;;;;10498450;28;20025;-82
2024/01/18 07:04:06;;;;;;;6.72;5.05;;;;;;;;;;10503469;28;20051;-83
2024/01/18 07:09:08;;;;;;;6.95;5.22;;;;;;;;;;10532920;28;20024;-82
2024/01/18 07:14:09;;;;;;;7.25;5.43;;;;;;;;;;10498393;28;20025;-82
2024/01/18 07:19:10;;;;;;;6.43;4.70;;;;;;;;;;10502512;28;20027;-82
2024/01/18 07:24:11;;;;;;;6.25;5.20;;;;;;;;;;10503074;28;20373;-82
2024/01/18 07:29:15;;;;;;;;;;;;;;;;;;10500717;28;20496;-83
2024/01/18 07:34:16;;;;;;;8.30;5.93;;;;;;;;;;10509126;28;19968;-82
2024/01/18 07:39:20;;;;;;;;;;;;;;;;;;10520973;28;20037;-82
2024/01/18 07:44:24;;;;;;;7.47;5.60;;;;;;;;;;10497940;28;19950;-83
2024/01/18 07:49:26;;;;;;;8.70;5.63;;;;;;;;;;10483493;28;20479;-83
2024/01/18 07:54:31;;;;;;;8.95;6.32;;;;;;;;;;10477836;28;20018;-83
2024/01/18 07:59:45;;;;;;;271.73;65.55;;;;;;;;;;10474127;28;20037;-82
2024/01/18 08:04:47;;;;;;;9.43;5.63;;;;;;;;;;10481506;28;20058;-82
2024/01/18 08:09:48;;;;;;;13.23;9.73;;;;;;;;;;10481076;28;20032;-83
2024/01/18 08:14:49;;;;;;;12.68;11.15;;;;;;;;;;10466974;28;20021;-83
2024/01/18 08:25:32;;;;;;;14.63;10.65;;;;;;;;;;10483796;28;19932;-85
2024/01/18 08:30:53;;;;;;;11.60;9.23;;;;;;;;;;10500964;28;20075;-79
2024/01/18 08:35:54;;;;;;;10.90;8.98;;;;;;;;;;10478437;28;20025;-80
2024/01/18 08:40:57;;;;;;;12.88;8.63;;;;;;;;;;10466162;28;20174;-80
2024/01/18 08:45:59;;;;;;;10.10;8.18;;;;;;;;;;10470147;28;20021;-80
2024/01/18 08:51:02;;;;;;;9.68;8.18;;;;;;;;;;10469909;28;20035;-80
2024/01/18 08:56:03;;;;;;;10.48;7.72;;;;;;;;;;10474136;28;20031;-81
2024/01/18 09:01:04;;;;;;;;;;;;;;;;;;10478318;28;20021;-81
2024/01/18 09:06:05;;;;;;;11.02;7.72;;;;;;;;;;10475817;28;19911;-81
2024/01/18 09:11:06;;;;;;;10.05;7.13;;;;;;;;;;10474078;28;20096;-80
2024/01/18 09:16:07;;;;;;;8.43;6.75;;;;;;;;;;10474452;28;20040;-83
2024/01/18 09:21:08;;;;;;;9.90;7.78;;;;;;;;;;10473117;28;20056;-80
2024/01/18 09:26:09;;;;;;;;;;;;;;;;;;10472124;28;20028;-80
2024/01/18 09:31:10;;;;;;;10.68;7.13;;;;;;;;;;10477080;28;20327;-82
2024/01/18 09:36:11;;;;;;;9.45;6.07;;;;;;;;;;10481280;28;20100;-82
2024/01/18 09:41:15;;;;;;;9.95;7.20;;;;;;;;;;10481370;28;20037;-82
2024/01/18 09:46:18;;;;;;;8.00;6.93;;;;;;;;;;10486871;28;20033;-81
2024/01/18 09:51:21;;;;;;;10.68;6.90;;;;;;;;;;10498041;28;20029;-80
2024/01/18 09:56:27;;;;;;;8.20;6.65;;;;;;;;;;10472782;28;20041;-81
2024/01/18 10:01:31;;;;;;;8.20;6.47;;;;;;;;;;10467805;28;20102;-81
2024/01/18 10:06:32;;;;;;;6.47;5.35;;;;;;;;;;10468161;28;20033;-81
2024/01/18 10:11:33;;;;;;;7.18;4.50;;;;;;;;;;10482637;28;20023;-80
2024/01/18 10:16:38;;;;;;;6.60;5.20;;;;;;;;;;10487164;28;20486;-81
2024/01/18 10:21:39;;;;;;;8.00;6.25;;;;;;;;;;10487492;28;20032;-80
2024/01/18 10:26:40;;;;;;;7.55;4.82;;;;;;;;;;10487664;28;20032;-80
2024/01/18 10:31:42;;;;;;;7.03;4.90;;;;;;;;;;10482946;28;20068;-81
2024/01/18 10:36:43;;;;;;;8.10;5.38;;;;;;;;;;10487739;28;20024;-80
2024/01/18 10:41:45;;;;;;;7.43;5.55;;;;;;;;;;10492027;28;20040;-80
2024/01/18 10:46:46;;;;;;;7.22;4.63;;;;;;;;;;10496375;28;20041;-81
2024/01/18 10:51:48;;;;;;;5.88;4.72;;;;;;;;;;10472555;28;20032;-80
2024/01/18 10:56:50;;;;;;;4.95;3.85;;;;;;;;;;10468166;28;20172;-81
2024/01/18 11:01:51;;;;;;;8.70;4.18;;;;;;;;;;10469925;28;20405;-81
2024/01/18 11:06:52;;;;;;;;;;;;;;;;;;10489393;28;20033;-80
2024/01/18 11:11:54;;;;;;;8.10;5.32;;;;;;;;;;10492191;28;19909;-83
2024/01/18 11:16:59;;;;;;;6.50;4.32;;;;;;;;;;10492007;28;20040;-79
2024/01/18 11:22:00;;;;;;;5.82;4.03;;;;;;;;;;10475310;28;20028;-82
2024/01/18 11:27:01;;;;;;;4.95;3.38;;;;;;;;;;10465105;28;20488;-82
2024/01/18 11:32:05;;;;;;;5.25;3.45;;;;;;;;;;10464757;28;20219;-82
2024/01/18 11:37:10;;;;;;;6.90;3.28;;;;;;;;;;10465505;28;20072;-82
2024/01/18 11:42:15;;;;;;;4.90;2.85;;;;;;;;;;10467277;28;20037;-81
2024/01/18 11:47:19;;;;;;;5.60;2.78;;;;;;;;;;10469533;28;20032;-81
2024/01/18 11:52:24;;;;;;;5.10;3.28;;;;;;;;;;10470238;28;20506;-81
2024/01/18 11:57:26;;;;;;;4.30;2.88;;;;;;;;;;10477513;28;20032;-81
2024/01/18 12:02:31;;;;;;;3.92;2.72;;;;;;;;;;10468301;28;20033;-81
2024/01/18 12:07:32;;;;;;;3.47;2.50;;;;;;;;;;10469922;28;20090;-80
2024/01/18 12:12:34;;;;;;;;;;;;;;;;;;10471699;28;20032;-80
2024/01/18 12:17:35;;;;;;;3.60;2.10;;;;;;;;;;10471324;28;19905;-80
2024/01/18 12:22:36;;;;;;;3.53;2.17;;;;;;;;;;10469966;28;20100;-80
2024/01/18 12:27:37;;;;;;;3.08;1.88;;;;;;;;;;10469837;28;20055;-81
2024/01/18 12:32:38;;;;;;;2.97;1.60;;;;;;;;;;10478803;28;20036;-79
2024/01/18 12:37:39;;;;;;;4.07;2.28;;;;;;;;;;10482805;28;20057;-78
2024/01/18 12:42:40;;;;;;;;;;;;;;;;;;10466719;28;20036;-81
2024/01/18 12:47:41;;;;;;;4.40;2.72;;;;;;;;;;10468768;28;19909;-82
2024/01/18 12:57:44;;;;;;;3.78;1.55;;;;;;;;;;10316263;22;20053;-78
2024/01/18 13:02:45;;;;;;;4.93;2.08;;;;;;;;;;10302879;28;20110;-79
2024/01/18 13:07:47;;;;;;;4.72;1.80;;;;;;;;;;10298152;28;20304;-78
2024/01/18 13:12:49;;;;;;;2.92;1.80;;;;;;;;;;10298217;28;20022;-78
2024/01/18 13:17:51;;;;;;;2.95;1.80;;;;;;;;;;10297984;28;20027;-78
2024/01/18 13:22:52;;;;;;;4.97;2.22;;;;;;;;;;10298711;28;20042;-81
2024/01/18 13:27:53;;;;;;;;;;;;;;;;;;10285720;28;20487;-78
2024/01/18 13:32:54;;;;;;;3.63;1.70;;;;;;;;;;10301477;28;19906;-79
2024/01/18 13:37:55;;;;;;;4.63;1.30;;;;;;;;;;10300197;28;20037;-79
2024/01/18 13:42:56;;;;;;;4.68;2.17;;;;;;;;;;10299522;28;20033;-80
2024/01/18 13:47:57;;;;;;;3.08;1.58;;;;;;;;;;10302251;28;20031;-79
2024/01/18 13:52:58;;;;;;;3.03;1.55;;;;;;;;;;10299747;28;20034;-78
2024/01/18 13:57:59;;;;;;;2.03;1.25;;;;;;;;;;10302570;28;20524;-79
2024/01/18 14:03:00;;;;;;;4.30;1.48;;;;;;;;;;10321146;28;20023;-77
2024/01/18 14:08:01;;;;;;;;;;;;;;;;;;10315740;28;20166;-78
2024/01/18 14:13:03;;;;;;;3.28;1.15;;;;;;;;;;10297869;28;20374;-78
2024/01/18 14:18:04;;;;;;;5.20;1.77;;;;;;;;;;10301509;28;20513;-79
2024/01/18 14:23:05;;;;;;;;;;;;;;;;;;10299551;28;20061;-78
2024/01/18 14:28:06;;;;;;;2.75;1.42;;;;;;;;;;10299061;28;19956;-79
2024/01/18 14:33:08;;;;;;;4.13;1.48;;;;;;;;;;10297405;28;20174;-78
2024/01/18 14:38:09;;;;;;;3.50;1.15;;;;;;;;;;10301844;28;20054;-77
2024/01/18 14:43:10;;;;;;;3.55;1.73;;;;;;;;;;10303069;28;20050;-78
2024/01/18 14:48:15;;;;;;;2.65;1.20;;;;;;;;;;10299823;28;20053;-79
2024/01/18 14:53:16;;;;;;;4.85;1.85;;;;;;;;;;10295733;28;20058;-79
2024/01/18 14:58:17;;;;;;;2.13;1.20;;;;;;;;;;10294467;28;20085;-82
2024/01/18 15:03:18;;;;;;;3.80;1.38;;;;;;;;;;10301599;28;20089;-78
2024/01/18 15:08:19;;;;;;;1.67;1.10;;;;;;;;;;10303518;28;20046;-79
2024/01/18 15:13:21;;;;;;;2.70;1.35;;;;;;;;;;10302178;28;20062;-78
2024/01/18 15:18:23;;;;;;;2.83;1.20;;;;;;;;;;10305309;28;20035;-79
2024/01/18 15:23:24;;;;;;;5.82;1.98;;;;;;;;;;10306152;28;20030;-80
2024/01/18 15:28:25;;;;;;;3.03;1.00;;;;;;;;;;10303304;28;20098;-78
2024/01/18 15:33:26;;;;;;;2.20;1.00;;;;;;;;;;10305043;28;20034;-79
2024/01/18 15:38:27;;;;;;;2.70;1.10;;;;;;;;;;10305191;28;20033;-79
2024/01/18 15:43:29;;;;;;;;;;;;;;;;;;10331198;28;20027;-80
2024/01/18 15:48:34;;;;;;;3.95;1.17;;;;;;;;;;10325789;28;19929;-79
2024/01/18 15:53:35;;;;;;;4.07;1.20;;;;;;;;;;10303513;28;20042;-79
2024/01/18 15:58:37;;;;;;;4.47;1.50;;;;;;;;;;10300906;28;20423;-80
2024/01/18 16:03:38;;;;;;;3.38;1.48;;;;;;;;;;10302478;28;20026;-80
2024/01/18 16:08:40;;;;;;;;;;;;;;;;;;10299568;28;20019;-78
2024/01/18 16:13:41;;;;;;;3.38;1.20;;;;;;;;;;10299224;28;19906;-81
2024/01/18 16:18:42;;;;;;;1.65;1.00;;;;;;;;;;10303637;28;20027;-79
2024/01/18 16:23:44;;;;;;;2.55;1.10;;;;;;;;;;10303445;28;20134;-79
2024/01/18 16:28:45;;;;;;;;;;;;;;;;;;10306896;28;20034;-80
2024/01/18 16:33:47;;;;;;;3.17;1.23;;;;;;;;;;10306931;28;19906;-80
2024/01/18 16:38:48;;;;;;;2.60;1.10;;;;;;;;;;10308804;28;20496;-79
2024/01/18 16:43:49;;;;;;;3.50;1.25;;;;;;;;;;10308343;28;20054;-81
2024/01/18 16:48:50;;;;;;;2.13;1.10;;;;;;;;;;10313741;28;20030;-82
2024/01/18 16:53:51;;;;;;;2.28;1.10;;;;;;;;;;10325385;28;20038;-79
2024/01/18 16:58:52;;;;;;;4.43;1.77;;;;;;;;;;10337394;28;20081;-80
2024/01/18 17:03:54;;;;;;;3.20;1.60;;;;;;;;;;10305248;28;20098;-79
2024/01/18 17:08:55;;;;;;;3.30;1.40;;;;;;;;;;10307272;28;20051;-79
2024/01/18 17:13:57;;;;;;;;;;;;;;;;;;10307981;28;20483;-80
2024/01/18 17:18:58;;;;;;;2.83;1.45;;;;;;;;;;10307512;28;19916;-80
2024/01/18 17:23:59;;;;;;;2.60;1.10;;;;;;;;;;10308900;28;20035;-81
2024/01/18 17:29:01;;;;;;;5.40;2.28;;;;;;;;;;10306518;28;20082;-79
2024/01/18 17:34:02;;;;;;;2.42;1.48;;;;;;;;;;10310013;28;20030;-80
2024/01/18 17:39:06;;;;;;;2.67;1.58;;;;;;;;;;10324444;28;20034;-85
2024/01/18 17:44:07;;;;;;;4.15;1.95;;;;;;;;;;10313864;28;20038;-85
2024/01/18 17:49:08;;;;;;;3.60;1.55;;;;;;;;;;10310792;28;20023;-84
2024/01/18 17:54:09;;;;;;;3.05;1.80;;;;;;;;;;10310201;28;20043;-84
2024/01/18 17:59:12;;;;;;;3.13;1.60;;;;;;;;;;10309487;28;20042;-84
2024/01/18 18:04:13;;;;;;;2.38;1.40;;;;;;;;;;10308704;28;20031;-84
2024/01/18 18:09:14;;;;;;;;;;;;;;;;;;10305846;28;20031;-84
2024/01/18 18:14:15;;;;;;;3.20;2.00;;;;;;;;;;10308634;28;19906;-84
2024/01/18 18:19:16;;;;;;;;;;;;;;;;;;10307984;28;20034;-84
2024/01/18 18:24:17;;;;;;;2.65;1.73;;;;;;;;;;10307541;28;19914;-84
2024/01/18 18:29:18;;;;;;;;;;;;;;;;;;10307875;28;20034;-84
2024/01/18 18:34:19;;;;;;;2.70;1.70;;;;;;;;;;10307610;28;19913;-84
2024/01/18 18:39:20;;;;;;;2.60;1.67;;;;;;;;;;10305257;28;20023;-84
2024/01/18 18:44:22;;;;;;;3.45;1.85;;;;;;;;;;10304320;28;20542;-85
2024/01/18 18:49:23;;;;;;;3.35;1.80;;;;;;;;;;10285528;28;20495;-85
2024/01/18 18:54:24;;;;;;;;;;;;;;;;;;10301081;28;20406;-80
2024/01/18 18:59:26;;;;;;;2.92;1.75;;;;;;;;;;10318533;28;19894;-81
2024/01/18 19:04:27;;;;;;;3.20;2.13;;;;;;;;;;10343011;28;20031;-84
2024/01/18 19:09:28;;;;;;;3.40;1.88;;;;;;;;;;10312653;28;20041;-84
2024/01/18 19:14:29;;;;;;;4.28;2.22;;;;;;;;;;10314252;28;20046;-85
2024/01/18 19:19:30;;;;;;;;;;;;;;;;;;10309322;28;20077;-84
2024/01/18 19:24:31;;;;;;;4.40;2.75;;;;;;;;;;10307502;28;19906;-84
2024/01/18 19:29:33;;;;;;;3.15;2.17;;;;;;;;;;10310247;28;20043;-84
2024/01/18 19:34:34;;;;;;;3.50;2.35;;;;;;;;;;10310948;28;20041;-84
2024/01/18 19:39:35;;;;;;;4.00;2.47;;;;;;;;;;10309929;28;20031;-84
2024/01/18 19:44:36;;;;;;;3.70;2.97;;;;;;;;;;10311549;28;20064;-84
2024/01/18 19:49:37;;;;;;;4.07;2.45;;;;;;;;;;10338426;28;20011;-84
2024/01/18 19:54:38;;;;;;;3.58;2.20;;;;;;;;;;10328975;28;20055;-85
2024/01/18 19:59:39;;;;;;;3.80;2.50;;;;;;;;;;10314949;28;20143;-84
2024/01/18 20:04:40;;;;;;;;;;;;;;;;;;10316551;28;20101;-85
